createdAt,value
2022-12-09T00:01:15.293Z,1.00
2022-12-09T00:03:43.137Z,1.00
2022-12-09T00:06:17.416Z,1.00
2022-12-09T00:08:45.051Z,1.00
2022-12-09T00:11:12.779Z,1.00
2022-12-09T00:13:40.231Z,1.00
2022-12-09T00:16:09.530Z,1.00
2022-12-09T00:18:36.605Z,1.00
2022-12-09T00:21:27.052Z,1.00
2022-12-09T00:23:56.219Z,1.00
2022-12-09T00:26:24.965Z,1.00
2022-12-09T00:28:53.675Z,1.00
2022-12-09T00:31:26.368Z,1.00
2022-12-09T00:33:57.456Z,1.00
2022-12-09T00:36:25.217Z,1.00
2022-12-09T00:38:57.856Z,1.00
2022-12-09T00:41:25.892Z,1.00
2022-12-09T00:43:53.336Z,1.00
2022-12-09T00:46:20.449Z,1.00
2022-12-09T00:48:48.152Z,14.80
2022-12-09T00:51:19.540Z,27.90
2022-12-09T00:53:47.606Z,65.70
2022-12-09T00:56:15.241Z,91.20
2022-12-09T00:58:42.366Z,99.90
2022-12-09T01:01:09.701Z,99.90
2022-12-09T01:03:36.955Z,99.90
2022-12-09T01:06:09.028Z,99.90
2022-12-09T01:08:38.979Z,99.90
2022-12-09T01:11:17.386Z,99.90
2022-12-09T01:13:47.104Z,99.90
2022-12-09T01:16:19.354Z,99.90
2022-12-09T01:18:48.858Z,99.90
2022-12-09T01:21:15.869Z,99.90
2022-12-09T01:23:43.230Z,99.90
2022-12-09T01:26:12.051Z,99.90
2022-12-09T01:28:40.270Z,99.90
2022-12-09T01:31:12.004Z,99.90
2022-12-09T01:33:39.959Z,99.90
2022-12-09T01:36:10.085Z,99.90
2022-12-09T01:38:37.099Z,99.90
2022-12-09T01:41:06.177Z,1.00
2022-12-09T01:43:33.487Z,1.00
2022-12-09T01:46:00.546Z,1.00
2022-12-09T01:48:31.584Z,1.00
2022-12-09T01:51:14.346Z,1.00
2022-12-09T01:53:45.460Z,1.00
2022-12-09T01:56:34.980Z,1.00
2022-12-09T01:59:12.207Z,31.60
2022-12-09T02:01:40.696Z,67.70
2022-12-09T02:04:08.018Z,98.10
2022-12-09T02:06:37.947Z,99.90
2022-12-09T02:09:07.374Z,99.90
2022-12-09T02:12:04.672Z,99.90
2022-12-09T02:14:47.952Z,99.90
2022-12-09T02:17:25.075Z,99.90
2022-12-09T02:20:13.486Z,99.90
2022-12-09T02:22:44.802Z,99.90
2022-12-09T02:25:30.298Z,99.90
2022-12-09T02:28:22.283Z,99.90
2022-12-09T02:31:24.875Z,99.90
2022-12-09T02:34:07.342Z,99.90
2022-12-09T02:36:55.877Z,99.90
2022-12-09T02:39:49.984Z,99.90
2022-12-09T02:42:21.641Z,99.90
2022-12-09T02:44:51.680Z,99.90
2022-12-09T02:47:25.980Z,99.90
2022-12-09T02:49:59.982Z,99.90
2022-12-09T02:52:29.755Z,99.90
2022-12-09T02:55:00.479Z,99.90
2022-12-09T02:57:30.784Z,99.90
2022-12-09T02:59:57.978Z,1.00
2022-12-09T03:02:31.346Z,1.00
2022-12-09T03:05:20.742Z,1.00
2022-12-09T03:07:50.757Z,1.00
2022-12-09T03:10:30.447Z,1.00
2022-12-09T03:13:21.020Z,1.00
2022-12-09T03:15:53.691Z,1.00
2022-12-09T03:18:24.969Z,1.00
2022-12-09T03:20:52.078Z,1.00
2022-12-09T03:23:23.779Z,1.00
2022-12-09T03:25:53.758Z,1.00
2022-12-09T03:28:23.058Z,1.00
2022-12-09T03:30:52.100Z,1.00
2022-12-09T03:33:22.868Z,1.00
2022-12-09T03:36:04.222Z,1.00
2022-12-09T03:38:35.961Z,1.00
2022-12-09T03:41:32.738Z,1.00
2022-12-09T03:44:10.399Z,1.00
2022-12-09T03:46:37.807Z,11.40
2022-12-09T03:49:04.966Z,53.80
2022-12-09T03:51:46.336Z,99.90
2022-12-09T03:54:43.367Z,99.90
2022-12-09T03:57:18.738Z,99.90
2022-12-09T03:59:55.958Z,99.90
2022-12-09T04:02:23.549Z,99.90
2022-12-09T04:04:51.648Z,99.90
2022-12-09T04:07:19.464Z,99.90
2022-12-09T04:09:46.515Z,99.90
2022-12-09T04:12:14.084Z,99.90
2022-12-09T04:14:41.133Z,99.90
2022-12-09T04:17:08.412Z,99.90
2022-12-09T04:19:35.891Z,99.90
2022-12-09T04:22:04.252Z,99.90
2022-12-09T04:24:31.355Z,4.30
2022-12-09T04:26:58.685Z,42.40
2022-12-09T04:29:25.976Z,99.90
2022-12-09T04:31:54.273Z,99.90
2022-12-09T04:34:24.526Z,99.90
2022-12-09T04:36:51.509Z,99.90
2022-12-09T04:39:19.605Z,99.90
2022-12-09T04:41:46.557Z,99.90
2022-12-09T04:44:13.539Z,99.90
2022-12-09T04:46:40.630Z,1.00
2022-12-09T04:49:07.628Z,1.00
2022-12-09T04:51:39.554Z,1.00
2022-12-09T04:54:11.893Z,1.00
2022-12-09T04:56:38.959Z,1.00
2022-12-09T04:59:06.285Z,1.00
2022-12-09T05:01:33.951Z,1.00
2022-12-09T05:04:01.342Z,1.00
2022-12-09T05:06:29.425Z,1.00
2022-12-09T05:08:56.655Z,1.00
2022-12-09T05:11:24.406Z,1.00
2022-12-09T05:13:55.481Z,1.00
2022-12-09T05:16:23.265Z,1.00
2022-12-09T05:18:50.837Z,1.00
2022-12-09T05:21:20.376Z,1.00
2022-12-09T05:23:48.559Z,1.00
2022-12-09T05:26:19.466Z,1.00
2022-12-09T05:28:47.452Z,1.00
2022-12-09T05:31:17.114Z,1.00
2022-12-09T05:33:45.848Z,1.00
2022-12-09T05:36:15.239Z,1.00
2022-12-09T05:38:43.005Z,1.00
2022-12-09T05:41:10.408Z,99.90
2022-12-09T05:43:38.383Z,99.90
2022-12-09T05:46:06.946Z,15.30
2022-12-09T05:48:34.561Z,99.90
2022-12-09T05:51:04.887Z,99.90
2022-12-09T05:53:32.777Z,99.90
2022-12-09T05:56:00.841Z,99.90
2022-12-09T05:58:28.429Z,99.90
2022-12-09T06:00:59.165Z,99.90
2022-12-09T06:03:26.420Z,99.90
2022-12-09T06:05:53.814Z,99.90
2022-12-09T06:08:21.293Z,99.90
2022-12-09T06:10:48.860Z,99.90
2022-12-09T06:13:16.453Z,99.90
2022-12-09T06:15:43.834Z,99.90
2022-12-09T06:18:11.341Z,99.90
2022-12-09T06:20:42.462Z,99.90
2022-12-09T06:23:09.718Z,99.90
2022-12-09T06:25:36.957Z,59.50
2022-12-09T06:28:04.730Z,1.00
2022-12-09T06:30:31.944Z,22.00
2022-12-09T06:33:00.744Z,1.00
2022-12-09T06:35:28.063Z,1.00
2022-12-09T06:37:55.803Z,1.00
2022-12-09T06:40:22.925Z,1.00
2022-12-09T06:42:53.272Z,1.00
2022-12-09T06:45:21.178Z,1.00
2022-12-09T06:47:49.314Z,1.00
2022-12-09T06:50:16.907Z,1.00
2022-12-09T06:52:44.206Z,1.00
2022-12-09T06:55:13.409Z,1.00
2022-12-09T06:57:41.329Z,1.00
2022-12-09T07:00:09.159Z,1.00
2022-12-09T07:02:37.278Z,1.00
2022-12-09T07:05:05.741Z,1.00
2022-12-09T07:07:33.832Z,1.00
2022-12-09T07:10:05.737Z,1.00
2022-12-09T07:12:33.063Z,1.00
2022-12-09T07:15:00.645Z,1.00
2022-12-09T07:17:28.155Z,1.00
2022-12-09T07:19:55.778Z,1.00
2022-12-09T07:22:23.843Z,1.00
2022-12-09T07:24:51.140Z,1.00
2022-12-09T07:27:19.828Z,1.00
2022-12-09T07:29:47.282Z,1.00
2022-12-09T07:32:14.908Z,1.00
2022-12-09T07:34:43.021Z,1.00
2022-12-09T07:37:10.269Z,1.00
2022-12-09T07:39:37.669Z,1.00
2022-12-09T07:42:05.367Z,1.00
2022-12-09T07:44:44.287Z,1.00
2022-12-09T07:47:11.654Z,1.00
2022-12-09T07:49:39.052Z,1.00
2022-12-09T07:52:06.500Z,1.00
2022-12-09T07:54:33.809Z,1.00
2022-12-09T07:57:01.096Z,1.00
2022-12-09T07:59:28.438Z,1.00
2022-12-09T08:01:57.003Z,1.00
2022-12-09T08:04:27.238Z,1.00
2022-12-09T08:06:54.832Z,1.00
2022-12-09T08:09:22.225Z,1.00
2022-12-09T08:11:50.183Z,1.00
2022-12-09T08:14:17.492Z,1.00
2022-12-09T08:16:44.760Z,1.00
2022-12-09T08:19:13.438Z,1.00
2022-12-09T08:21:41.694Z,99.90
2022-12-09T08:24:10.383Z,99.90
2022-12-09T08:26:39.276Z,99.90
2022-12-09T08:29:11.973Z,1.00
2022-12-09T08:31:43.179Z,1.00
2022-12-09T08:34:11.334Z,1.00
2022-12-09T08:36:39.246Z,1.00
2022-12-09T08:39:06.932Z,1.00
2022-12-09T08:41:36.882Z,1.00
2022-12-09T08:44:12.277Z,1.00
2022-12-09T08:46:42.943Z,99.90
2022-12-09T08:49:12.134Z,1.00
2022-12-09T08:51:40.426Z,1.00
2022-12-09T08:54:07.882Z,1.00
2022-12-09T08:56:35.394Z,1.00
2022-12-09T08:59:02.962Z,1.00
2022-12-09T09:01:35.939Z,1.00
2022-12-09T09:04:08.013Z,1.00
2022-12-09T09:06:37.514Z,99.90
2022-12-09T09:09:07.131Z,99.90
2022-12-09T09:11:35.492Z,1.00
2022-12-09T09:14:06.819Z,1.00
2022-12-09T09:16:34.867Z,1.00
2022-12-09T09:19:05.835Z,1.00
2022-12-09T09:21:34.579Z,1.00
2022-12-09T09:24:02.492Z,1.00
2022-12-09T09:26:29.603Z,1.00
2022-12-09T09:28:57.899Z,1.00
2022-12-09T09:31:25.969Z,1.00
2022-12-09T09:33:53.968Z,1.00
2022-12-09T09:36:23.982Z,99.90
2022-12-09T09:38:53.976Z,99.90
2022-12-09T09:41:33.245Z,99.90
2022-12-09T09:44:01.097Z,99.90
2022-12-09T09:46:36.055Z,99.90
2022-12-09T09:49:07.143Z,99.90
2022-12-09T09:51:35.839Z,99.90
2022-12-09T09:54:08.399Z,99.90
2022-12-09T09:56:53.687Z,99.90
2022-12-09T09:59:32.681Z,99.90
2022-12-09T10:02:08.887Z,99.90
2022-12-09T10:05:13.316Z,99.90
2022-12-09T10:07:47.305Z,99.90
2022-12-09T10:10:41.261Z,99.90
2022-12-09T10:13:24.034Z,99.90
2022-12-09T10:16:18.198Z,99.90
2022-12-09T10:19:09.288Z,99.90
2022-12-09T10:21:46.122Z,99.90
2022-12-09T10:24:37.363Z,87.60
2022-12-09T10:27:29.137Z,99.90
2022-12-09T10:30:04.828Z,99.90
2022-12-09T10:32:34.770Z,99.90
2022-12-09T10:35:28.976Z,99.90
2022-12-09T10:38:09.724Z,99.90
2022-12-09T10:40:46.130Z,95.20
2022-12-09T10:43:35.593Z,50.80
2022-12-09T10:46:24.076Z,54.00
2022-12-09T10:48:53.262Z,63.70
2022-12-09T10:51:35.855Z,99.90
2022-12-09T10:54:15.458Z,99.90
2022-12-09T10:57:11.829Z,99.90
2022-12-09T10:59:40.881Z,99.90
2022-12-09T11:02:07.935Z,99.90
2022-12-09T11:04:40.919Z,99.90
2022-12-09T11:07:25.880Z,99.90
2022-12-09T11:09:59.007Z,99.90
2022-12-09T11:12:33.620Z,99.90
2022-12-09T11:15:07.519Z,99.90
2022-12-09T11:17:37.825Z,99.90
2022-12-09T11:20:21.429Z,99.90
2022-12-09T11:23:02.662Z,99.90
2022-12-09T11:25:33.854Z,99.90
2022-12-09T11:28:05.532Z,99.10
2022-12-09T11:30:38.821Z,99.90
2022-12-09T11:33:14.545Z,99.90
2022-12-09T11:35:45.146Z,99.90
2022-12-09T11:38:31.083Z,99.90
2022-12-09T11:41:03.147Z,99.90
2022-12-09T11:43:46.176Z,99.90
2022-12-09T11:46:13.150Z,99.90
2022-12-09T11:49:15.061Z,99.30
2022-12-09T11:51:58.181Z,99.90
2022-12-09T11:54:30.741Z,99.90
2022-12-09T11:57:00.542Z,99.00
2022-12-09T11:59:38.273Z,99.90
2022-12-09T12:02:35.278Z,99.90
2022-12-09T12:05:34.093Z,99.90
2022-12-09T12:08:03.818Z,99.90
2022-12-09T12:10:37.263Z,99.90
2022-12-09T12:13:22.604Z,99.90
2022-12-09T12:15:58.528Z,99.90
2022-12-09T12:18:28.773Z,99.90
2022-12-09T12:21:04.954Z,99.90
2022-12-09T12:24:08.448Z,99.90
2022-12-09T12:26:51.217Z,99.90
2022-12-09T12:29:33.484Z,99.90
2022-12-09T12:32:09.075Z,99.90
2022-12-09T12:34:57.800Z,99.90
2022-12-09T12:37:43.854Z,1.00
2022-12-09T12:40:26.750Z,1.00
2022-12-09T12:43:31.006Z,1.00
2022-12-09T12:46:30.955Z,1.00
2022-12-09T12:49:22.350Z,1.00
2022-12-09T12:52:21.156Z,1.00
2022-12-09T12:55:02.253Z,1.00
2022-12-09T12:57:47.591Z,1.00
2022-12-09T13:00:24.097Z,1.00
2022-12-09T13:03:01.896Z,1.00
2022-12-09T13:05:37.390Z,1.00
2022-12-09T13:08:33.566Z,1.00
2022-12-09T13:11:20.036Z,1.00
2022-12-09T13:14:00.406Z,1.00
2022-12-09T13:16:38.369Z,1.00
2022-12-09T13:19:12.877Z,1.00
2022-12-09T13:21:40.971Z,1.00
2022-12-09T13:24:32.978Z,1.00
2022-12-09T13:27:05.890Z,1.00
2022-12-09T13:30:01.458Z,1.00
2022-12-09T13:32:46.599Z,1.00
2022-12-09T13:35:27.109Z,1.00
2022-12-09T13:37:55.234Z,99.90
2022-12-09T13:40:24.940Z,99.90
2022-12-09T13:43:03.874Z,99.90
2022-12-09T13:45:43.038Z,99.90
2022-12-09T13:48:16.868Z,99.90
2022-12-09T13:50:57.069Z,99.90
2022-12-09T13:53:34.646Z,99.90
2022-12-09T13:56:16.399Z,99.90
2022-12-09T13:59:16.921Z,99.90
2022-12-09T14:02:11.606Z,99.90
2022-12-09T14:05:01.485Z,99.90
2022-12-09T14:07:42.784Z,99.90
2022-12-09T14:10:41.046Z,86.00
2022-12-09T14:13:29.271Z,90.80
2022-12-09T14:16:14.477Z,96.50
2022-12-09T14:18:41.923Z,96.90
2022-12-09T14:21:18.292Z,89.30
2022-12-09T14:24:16.323Z,67.90
2022-12-09T14:27:08.126Z,94.00
2022-12-09T14:29:43.921Z,99.90
2022-12-09T14:32:30.645Z,90.20
2022-12-09T14:35:30.523Z,83.70
2022-12-09T14:37:57.433Z,98.70
2022-12-09T14:40:37.931Z,99.90
2022-12-09T14:43:14.005Z,99.90
2022-12-09T14:45:56.308Z,99.90
2022-12-09T14:48:26.289Z,99.90
2022-12-09T14:51:21.501Z,99.90
2022-12-09T14:53:53.863Z,99.90
2022-12-09T14:56:23.505Z,99.90
2022-12-09T14:58:56.118Z,99.90
2022-12-09T15:01:31.678Z,99.90
2022-12-09T15:04:01.764Z,99.90
2022-12-09T15:06:50.922Z,69.90
2022-12-09T15:09:21.059Z,97.60
2022-12-09T15:11:47.965Z,99.90
2022-12-09T15:14:27.288Z,81.90
2022-12-09T15:16:58.313Z,64.40
2022-12-09T15:19:58.631Z,85.20
2022-12-09T15:22:29.395Z,93.90
2022-12-09T15:24:58.563Z,99.90
2022-12-09T15:27:28.302Z,99.90
2022-12-09T15:29:55.324Z,99.90
2022-12-09T15:32:30.539Z,99.90
2022-12-09T15:35:16.921Z,99.90
2022-12-09T15:37:44.850Z,99.90
2022-12-09T15:40:15.672Z,99.90
2022-12-09T15:42:45.371Z,99.90
2022-12-09T15:45:16.641Z,99.90
2022-12-09T15:47:51.429Z,99.90
2022-12-09T15:50:23.573Z,99.90
2022-12-09T15:52:52.041Z,99.90
2022-12-09T15:55:50.429Z,99.90
2022-12-09T15:58:25.754Z,99.90
2022-12-09T16:00:54.697Z,99.30
2022-12-09T16:03:28.382Z,99.90
2022-12-09T16:05:58.463Z,92.00
2022-12-09T16:08:43.578Z,77.90
2022-12-09T16:11:11.672Z,81.40
2022-12-09T16:14:01.137Z,90.80
2022-12-09T16:16:40.426Z,93.40
2022-12-09T16:19:46.771Z,92.20
2022-12-09T16:22:28.197Z,92.10
2022-12-09T16:25:17.594Z,99.90
2022-12-09T16:27:49.087Z,99.90
2022-12-09T16:30:23.404Z,99.90
2022-12-09T16:32:55.532Z,96.80
2022-12-09T16:35:24.885Z,56.90
2022-12-09T16:37:58.168Z,77.30
2022-12-09T16:40:24.978Z,82.90
2022-12-09T16:42:54.379Z,84.20
2022-12-09T16:45:32.262Z,84.70
2022-12-09T16:48:00.354Z,81.50
2022-12-09T16:50:33.373Z,62.90
2022-12-09T16:53:00.437Z,58.60
2022-12-09T16:55:29.445Z,57.90
2022-12-09T16:57:58.722Z,3.50
2022-12-09T17:00:26.332Z,1.00
2022-12-09T17:03:03.128Z,1.00
2022-12-09T17:05:30.259Z,1.00
2022-12-09T17:08:03.529Z,1.00
2022-12-09T17:10:30.487Z,1.00
2022-12-09T17:12:57.633Z,1.00
2022-12-09T17:15:24.626Z,1.00
2022-12-09T17:17:51.643Z,1.00
2022-12-09T17:20:18.602Z,1.00
2022-12-09T17:22:45.677Z,1.00
2022-12-09T17:25:12.632Z,1.00
2022-12-09T17:27:39.581Z,1.00
2022-12-09T17:30:10.220Z,1.00
2022-12-09T17:32:37.660Z,1.00
2022-12-09T17:35:10.616Z,1.00
2022-12-09T17:37:39.244Z,1.00
2022-12-09T17:40:10.123Z,1.00
2022-12-09T17:42:37.456Z,1.00
2022-12-09T17:45:05.619Z,1.00
2022-12-09T17:47:33.363Z,1.00
2022-12-09T17:50:01.225Z,1.00
2022-12-09T17:52:28.199Z,1.00
2022-12-09T17:54:58.745Z,1.00
2022-12-09T17:57:26.260Z,1.00
2022-12-09T17:59:53.140Z,1.00
2022-12-09T18:02:20.816Z,1.00
2022-12-09T18:04:47.842Z,1.00
2022-12-09T18:07:14.891Z,7.00
2022-12-09T18:09:41.835Z,17.60
2022-12-09T18:12:14.630Z,28.50
2022-12-09T18:14:41.571Z,38.30
2022-12-09T18:17:08.555Z,17.30
2022-12-09T18:19:35.614Z,16.20
2022-12-09T18:22:05.430Z,23.00
2022-12-09T18:24:34.370Z,44.00
2022-12-09T18:27:01.260Z,50.00
2022-12-09T18:29:28.353Z,42.00
2022-12-09T18:32:04.123Z,51.60
2022-12-09T18:34:32.897Z,61.60
2022-12-09T18:37:00.088Z,81.20
2022-12-09T18:39:27.752Z,96.40
2022-12-09T18:41:54.716Z,99.90
2022-12-09T18:44:21.823Z,99.90
2022-12-09T18:46:50.296Z,99.90
2022-12-09T18:49:23.715Z,99.90
2022-12-09T18:51:53.787Z,99.90
2022-12-09T18:54:29.834Z,99.90
2022-12-09T18:56:58.063Z,99.90
2022-12-09T18:59:28.167Z,99.90
2022-12-09T19:01:55.241Z,99.90
2022-12-09T19:04:27.791Z,99.90
2022-12-09T19:06:57.568Z,99.90
2022-12-09T19:09:34.976Z,99.90
2022-12-09T19:12:37.985Z,99.90
2022-12-09T19:14:52.297Z,99.90
2022-12-09T19:17:22.504Z,99.90
2022-12-09T19:19:49.548Z,99.90
2022-12-09T19:22:16.506Z,99.90
2022-12-09T19:24:44.306Z,1.00
2022-12-09T19:27:13.722Z,1.00
2022-12-09T19:29:41.004Z,1.00
2022-12-09T19:32:29.598Z,1.00
2022-12-09T19:34:55.094Z,1.00
2022-12-09T19:37:22.291Z,1.00
2022-12-09T19:39:50.234Z,1.00
2022-12-09T19:42:19.162Z,1.00
2022-12-09T19:45:06.477Z,1.00
2022-12-09T19:47:34.791Z,1.00
2022-12-09T19:50:01.831Z,1.00
2022-12-09T19:52:29.114Z,1.00
2022-12-09T19:54:56.077Z,1.00
2022-12-09T19:57:23.152Z,1.00
2022-12-09T19:59:50.183Z,1.00
2022-12-09T20:02:17.068Z,1.00
2022-12-09T20:04:49.272Z,1.00
2022-12-09T20:07:17.200Z,1.00
2022-12-09T20:09:44.152Z,1.00
2022-12-09T20:12:11.138Z,1.00
2022-12-09T20:14:39.556Z,1.00
2022-12-09T20:17:06.569Z,1.00
2022-12-09T20:19:35.826Z,1.00
2022-12-09T20:22:02.926Z,1.00
2022-12-09T20:24:30.397Z,1.00
2022-12-09T20:26:57.656Z,1.00
2022-12-09T20:29:24.590Z,1.00
2022-12-09T20:31:52.963Z,1.00
2022-12-09T20:34:20.041Z,1.00
2022-12-09T20:36:47.265Z,1.00
2022-12-09T20:39:17.862Z,1.00
2022-12-09T20:41:45.854Z,1.00
2022-12-09T20:44:13.840Z,1.00
2022-12-09T20:46:44.343Z,1.00
2022-12-09T20:49:11.258Z,1.00
2022-12-09T20:51:40.370Z,1.00
2022-12-09T20:54:10.173Z,1.00
2022-12-09T20:56:37.324Z,1.00
2022-12-09T20:59:06.655Z,1.00
2022-12-09T21:01:35.033Z,1.00
2022-12-09T21:04:04.475Z,1.00
2022-12-09T21:06:33.849Z,1.00
2022-12-09T21:09:02.518Z,1.00
2022-12-09T21:11:29.631Z,1.00
2022-12-09T21:14:02.222Z,1.00
2022-12-09T21:16:32.869Z,1.00
2022-12-09T21:19:05.838Z,44.80
2022-12-09T21:21:34.949Z,99.90
2022-12-09T21:24:02.617Z,99.90
2022-12-09T21:26:30.250Z,99.90
2022-12-09T21:28:59.693Z,99.90
2022-12-09T21:31:30.161Z,99.90
2022-12-09T21:34:01.265Z,99.90
2022-12-09T21:36:30.921Z,99.90
2022-12-09T21:38:58.279Z,99.90
2022-12-09T21:41:28.070Z,99.90
2022-12-09T21:43:55.846Z,99.90
2022-12-09T21:46:26.538Z,99.90
2022-12-09T21:48:59.983Z,99.90
2022-12-09T21:51:30.412Z,99.90
2022-12-09T21:53:57.513Z,99.90
2022-12-09T21:56:26.705Z,99.90
2022-12-09T21:58:55.783Z,99.90
2022-12-09T22:01:26.913Z,99.90
2022-12-09T22:03:55.447Z,99.90
2022-12-09T22:06:23.023Z,99.90
2022-12-09T22:08:50.620Z,99.90
2022-12-09T22:11:20.394Z,99.90
2022-12-09T22:13:47.804Z,99.90
2022-12-09T22:16:24.386Z,1.00
2022-12-09T22:18:53.620Z,1.00
2022-12-09T22:21:25.069Z,1.00
2022-12-09T22:23:57.160Z,1.00
2022-12-09T22:26:25.149Z,1.00
2022-12-09T22:28:52.806Z,1.00
2022-12-09T22:31:23.584Z,1.00
2022-12-09T22:33:52.641Z,1.00
2022-12-09T22:36:20.868Z,1.00
2022-12-09T22:38:48.796Z,1.00
2022-12-09T22:41:20.728Z,1.00
2022-12-09T22:43:49.841Z,1.00
2022-12-09T22:46:23.310Z,1.00
2022-12-09T22:48:51.102Z,1.00
2022-12-09T22:51:22.481Z,1.00
2022-12-09T22:53:51.587Z,1.00
2022-12-09T22:56:19.534Z,1.00
2022-12-09T22:58:46.956Z,1.00
2022-12-09T23:01:16.880Z,1.00
2022-12-09T23:03:44.022Z,1.00
2022-12-09T23:06:11.306Z,1.00
2022-12-09T23:08:40.274Z,1.00
2022-12-09T23:11:13.661Z,1.00
2022-12-09T23:13:41.564Z,1.00
2022-12-09T23:16:12.635Z,1.00
2022-12-09T23:18:40.182Z,1.00
2022-12-09T23:21:14.982Z,1.00
2022-12-09T23:23:43.250Z,1.00
2022-12-09T23:26:14.159Z,1.00
2022-12-09T23:28:50.186Z,1.00
2022-12-09T23:31:20.037Z,1.00
2022-12-09T23:33:48.056Z,1.00
2022-12-09T23:36:16.631Z,1.00
2022-12-09T23:38:44.333Z,1.00
2022-12-09T23:41:12.680Z,1.00
2022-12-09T23:43:39.706Z,1.00
2022-12-09T23:46:14.947Z,1.00
2022-12-09T23:48:44.073Z,1.00
2022-12-09T23:51:13.410Z,1.00
2022-12-09T23:53:41.509Z,99.90
2022-12-09T23:56:12.566Z,99.90
2022-12-09T23:58:40.585Z,99.90
